createdAt,value
2023-04-17T00:00:31.000Z,0
2023-04-17T00:01:47.000Z,0
2023-04-17T00:03:04.000Z,0
2023-04-17T00:04:20.000Z,0
2023-04-17T00:05:36.000Z,0
2023-04-17T00:06:52.000Z,0
2023-04-17T00:08:07.000Z,0
2023-04-17T00:09:24.000Z,0
2023-04-17T00:10:40.000Z,0
2023-04-17T00:11:56.000Z,0
2023-04-17T00:13:12.000Z,0
2023-04-17T00:14:28.000Z,0
2023-04-17T00:15:45.000Z,0
2023-04-17T00:17:01.000Z,0
2023-04-17T00:18:17.000Z,0
2023-04-17T00:19:33.000Z,0
2023-04-17T00:20:49.000Z,0
2023-04-17T00:22:06.000Z,0
2023-04-17T00:23:22.000Z,0
2023-04-17T00:24:37.000Z,0
2023-04-17T00:25:53.000Z,0
2023-04-17T00:27:09.000Z,0
2023-04-17T00:28:25.000Z,0
2023-04-17T00:29:42.000Z,0
2023-04-17T00:30:58.000Z,0
2023-04-17T00:32:14.000Z,0
2023-04-17T00:33:30.000Z,0
2023-04-17T00:34:46.000Z,0
2023-04-17T00:36:03.000Z,0
2023-04-17T00:37:19.000Z,0
2023-04-17T00:38:35.000Z,0
2023-04-17T00:39:51.000Z,0
2023-04-17T00:41:06.000Z,0
2023-04-17T00:42:23.000Z,0
2023-04-17T00:43:39.000Z,0
2023-04-17T00:44:55.000Z,0
2023-04-17T00:46:11.000Z,0
2023-04-17T00:47:27.000Z,0
2023-04-17T00:48:43.000Z,0
2023-04-17T00:49:59.000Z,0
2023-04-17T00:51:15.000Z,0
2023-04-17T00:52:31.000Z,0
2023-04-17T00:53:47.000Z,0
2023-04-17T00:55:04.000Z,0
2023-04-17T00:56:20.000Z,0
2023-04-17T00:57:36.000Z,0
2023-04-17T00:58:52.000Z,0
2023-04-17T01:00:08.000Z,0
2023-04-17T01:01:24.000Z,0
2023-04-17T01:02:41.000Z,0
2023-04-17T01:03:57.000Z,0
2023-04-17T01:05:12.000Z,0
2023-04-17T01:06:28.000Z,0
2023-04-17T01:07:44.000Z,0
2023-04-17T01:09:01.000Z,0
2023-04-17T01:10:17.000Z,0
2023-04-17T01:11:33.000Z,0
2023-04-17T01:12:49.000Z,0
2023-04-17T01:14:05.000Z,0
2023-04-17T01:15:22.000Z,0
2023-04-17T01:16:38.000Z,0
2023-04-17T01:17:54.000Z,0
2023-04-17T01:19:10.000Z,0
2023-04-17T01:20:26.000Z,0
2023-04-17T01:21:42.000Z,0
2023-04-17T01:22:58.000Z,0
2023-04-17T01:24:14.000Z,0
2023-04-17T01:25:30.000Z,0
2023-04-17T01:26:46.000Z,0
2023-04-17T01:28:03.000Z,0
2023-04-17T01:29:19.000Z,0
2023-04-17T01:30:35.000Z,0
2023-04-17T01:31:51.000Z,0
2023-04-17T01:33:07.000Z,0
2023-04-17T01:34:23.000Z,0
2023-04-17T01:35:40.000Z,0
2023-04-17T01:36:56.000Z,0
2023-04-17T01:38:11.000Z,0
2023-04-17T01:39:27.000Z,0
2023-04-17T01:40:43.000Z,0
2023-04-17T01:42:00.000Z,0
2023-04-17T01:43:16.000Z,0
2023-04-17T01:44:32.000Z,0
2023-04-17T01:45:48.000Z,0
2023-04-17T01:47:04.000Z,0
2023-04-17T01:48:21.000Z,0
2023-04-17T01:49:37.000Z,0
2023-04-17T01:50:53.000Z,0
2023-04-17T01:52:09.000Z,0
2023-04-17T01:53:25.000Z,0
2023-04-17T01:54:41.000Z,0
2023-04-17T01:55:57.000Z,0
2023-04-17T01:57:13.000Z,0
2023-04-17T01:58:29.000Z,0
2023-04-17T01:59:45.000Z,0
2023-04-17T02:01:02.000Z,0
2023-04-17T02:02:18.000Z,0
2023-04-17T02:03:34.000Z,0
2023-04-17T02:04:50.000Z,0
2023-04-17T02:06:06.000Z,0
2023-04-17T02:07:22.000Z,0
2023-04-17T02:08:39.000Z,0
2023-04-17T02:09:55.000Z,0
2023-04-17T02:11:10.000Z,0
2023-04-17T02:12:26.000Z,0
2023-04-17T02:13:42.000Z,0
2023-04-17T02:14:59.000Z,0
2023-04-17T02:16:15.000Z,0
2023-04-17T02:17:31.000Z,0
2023-04-17T02:18:47.000Z,0
2023-04-17T02:20:03.000Z,0
2023-04-17T02:21:20.000Z,0
2023-04-17T02:22:36.000Z,0
2023-04-17T02:23:52.000Z,0
2023-04-17T02:25:08.000Z,0
2023-04-17T02:26:24.000Z,0
2023-04-17T02:27:40.000Z,0
2023-04-17T02:28:56.000Z,0
2023-04-17T02:30:12.000Z,0
2023-04-17T02:31:28.000Z,0
2023-04-17T02:32:44.000Z,0
2023-04-17T02:34:00.000Z,0
2023-04-17T02:35:17.000Z,0
2023-04-17T02:36:33.000Z,0
2023-04-17T02:37:49.000Z,0
2023-04-17T02:39:05.000Z,0
2023-04-17T02:40:21.000Z,0
2023-04-17T02:41:38.000Z,0
2023-04-17T02:42:54.000Z,0
2023-04-17T02:44:09.000Z,0
2023-04-17T02:45:25.000Z,0
2023-04-17T02:46:41.000Z,0
2023-04-17T02:47:58.000Z,0
2023-04-17T02:49:14.000Z,0
2023-04-17T02:50:30.000Z,0
2023-04-17T02:51:46.000Z,0
2023-04-17T02:53:02.000Z,0
2023-04-17T02:54:19.000Z,0
2023-04-17T02:55:35.000Z,0
2023-04-17T02:56:51.000Z,0
2023-04-17T02:58:07.000Z,0
2023-04-17T02:59:23.000Z,0
2023-04-17T03:00:39.000Z,0
2023-04-17T03:01:55.000Z,0
2023-04-17T03:03:11.000Z,0
2023-04-17T03:04:27.000Z,0
2023-04-17T03:05:43.000Z,0
2023-04-17T03:06:59.000Z,0
2023-04-17T03:08:16.000Z,0
2023-04-17T03:09:32.000Z,0
2023-04-17T03:10:48.000Z,0
2023-04-17T03:12:04.000Z,0
2023-04-17T03:13:20.000Z,0
2023-04-17T03:14:37.000Z,0
2023-04-17T03:15:53.000Z,0
2023-04-17T03:17:08.000Z,0
2023-04-17T03:18:24.000Z,0
2023-04-17T03:19:40.000Z,0
2023-04-17T03:20:57.000Z,0
2023-04-17T03:22:13.000Z,0
2023-04-17T03:23:29.000Z,0
2023-04-17T03:24:45.000Z,0
2023-04-17T03:26:01.000Z,0
2023-04-17T03:27:18.000Z,0
2023-04-17T03:28:34.000Z,0
2023-04-17T03:29:50.000Z,0
2023-04-17T03:31:06.000Z,0
2023-04-17T03:32:22.000Z,0
2023-04-17T03:33:38.000Z,0
2023-04-17T03:34:54.000Z,0
2023-04-17T03:36:10.000Z,0
2023-04-17T03:37:26.000Z,0
2023-04-17T03:38:42.000Z,0
2023-04-17T03:39:58.000Z,0
2023-04-17T03:41:15.000Z,0
2023-04-17T03:42:31.000Z,0
2023-04-17T03:43:47.000Z,0
2023-04-17T03:45:03.000Z,0
2023-04-17T03:46:19.000Z,0
2023-04-17T03:47:36.000Z,0
2023-04-17T03:48:52.000Z,0
2023-04-17T03:50:07.000Z,0
2023-04-17T03:51:23.000Z,0
2023-04-17T03:52:39.000Z,0
2023-04-17T03:53:56.000Z,0
2023-04-17T03:55:12.000Z,0
2023-04-17T03:56:28.000Z,0
2023-04-17T03:57:44.000Z,0
2023-04-17T03:59:00.000Z,0
2023-04-17T04:00:17.000Z,0
2023-04-17T04:01:33.000Z,0
2023-04-17T04:02:49.000Z,0
2023-04-17T04:04:05.000Z,0
2023-04-17T04:05:21.000Z,0
2023-04-17T04:06:36.000Z,0
2023-04-17T04:07:53.000Z,0
2023-04-17T04:09:09.000Z,0
2023-04-17T04:10:25.000Z,0
2023-04-17T04:11:41.000Z,0
2023-04-17T04:12:57.000Z,0
2023-04-17T04:14:14.000Z,0
2023-04-17T04:15:30.000Z,0
2023-04-17T04:16:46.000Z,0
2023-04-17T04:18:02.000Z,0
2023-04-17T04:19:18.000Z,0
2023-04-17T04:20:35.000Z,0
2023-04-17T04:21:51.000Z,0
2023-04-17T04:23:06.000Z,0
2023-04-17T04:24:22.000Z,0
2023-04-17T04:25:38.000Z,0
2023-04-17T04:26:55.000Z,0
2023-04-17T04:28:11.000Z,5
2023-04-17T04:29:27.000Z,5
2023-04-17T04:30:43.000Z,5
2023-04-17T04:31:59.000Z,5
2023-04-17T04:33:15.000Z,5
2023-04-17T04:34:32.000Z,5
2023-04-17T04:35:48.000Z,11
2023-04-17T04:37:04.000Z,11
2023-04-17T04:38:20.000Z,11
2023-04-17T04:39:35.000Z,11
2023-04-17T04:40:52.000Z,11
2023-04-17T04:42:08.000Z,11
2023-04-17T04:43:24.000Z,11
2023-04-17T04:44:40.000Z,11
2023-04-17T04:45:56.000Z,11
2023-04-17T04:47:13.000Z,11
2023-04-17T04:48:29.000Z,11
2023-04-17T04:49:45.000Z,11
2023-04-17T04:51:01.000Z,11
2023-04-17T04:52:17.000Z,11
2023-04-17T04:53:34.000Z,11
2023-04-17T04:54:50.000Z,11
2023-04-17T04:56:05.000Z,11
2023-04-17T04:57:21.000Z,11
2023-04-17T04:58:37.000Z,16
2023-04-17T04:59:53.000Z,16
2023-04-17T05:01:10.000Z,22
2023-04-17T05:02:26.000Z,22
2023-04-17T05:03:41.000Z,22
2023-04-17T05:04:57.000Z,28
2023-04-17T05:06:13.000Z,28
2023-04-17T05:07:30.000Z,28
2023-04-17T05:08:46.000Z,28
2023-04-17T05:10:02.000Z,33
2023-04-17T05:11:18.000Z,33
2023-04-17T05:12:34.000Z,39
2023-04-17T05:13:51.000Z,50
2023-04-17T05:15:07.000Z,50
2023-04-17T05:16:23.000Z,56
2023-04-17T05:17:39.000Z,61
2023-04-17T05:18:55.000Z,67
2023-04-17T05:20:11.000Z,73
2023-04-17T05:21:27.000Z,78
2023-04-17T05:22:43.000Z,90
2023-04-17T05:23:59.000Z,90
2023-04-17T05:25:15.000Z,90
2023-04-17T05:26:31.000Z,95
2023-04-17T05:27:48.000Z,101
2023-04-17T05:29:04.000Z,106
2023-04-17T05:30:20.000Z,112
2023-04-17T05:31:36.000Z,118
2023-04-17T05:32:52.000Z,118
2023-04-17T05:34:09.000Z,123
2023-04-17T05:35:25.000Z,123
2023-04-17T05:36:40.000Z,129
2023-04-17T05:37:56.000Z,129
2023-04-17T05:39:12.000Z,135
2023-04-17T05:40:29.000Z,135
2023-04-17T05:41:45.000Z,140
2023-04-17T05:43:01.000Z,140
2023-04-17T05:44:17.000Z,146
2023-04-17T05:45:33.000Z,146
2023-04-17T05:46:50.000Z,151
2023-04-17T05:48:06.000Z,157
2023-04-17T05:49:22.000Z,157
2023-04-17T05:50:38.000Z,168
2023-04-17T05:51:54.000Z,168
2023-04-17T05:53:09.000Z,168
2023-04-17T05:54:26.000Z,174
2023-04-17T05:55:42.000Z,180
2023-04-17T05:56:58.000Z,180
2023-04-17T05:58:14.000Z,185
2023-04-17T05:59:30.000Z,191
2023-04-17T06:00:47.000Z,196
2023-04-17T06:02:03.000Z,202
2023-04-17T06:03:19.000Z,208
2023-04-17T06:04:35.000Z,213
2023-04-17T06:05:51.000Z,219
2023-04-17T06:07:08.000Z,225
2023-04-17T06:08:24.000Z,230
2023-04-17T06:09:39.000Z,236
2023-04-17T06:10:55.000Z,241
2023-04-17T06:12:11.000Z,241
2023-04-17T06:13:28.000Z,247
2023-04-17T06:14:44.000Z,253
2023-04-17T06:16:00.000Z,264
2023-04-17T06:17:16.000Z,270
2023-04-17T06:18:32.000Z,275
2023-04-17T06:19:48.000Z,286
2023-04-17T06:21:05.000Z,298
2023-04-17T06:22:21.000Z,298
2023-04-17T06:23:37.000Z,303
2023-04-17T06:24:53.000Z,315
2023-04-17T06:26:08.000Z,320
2023-04-17T06:27:25.000Z,326
2023-04-17T06:28:41.000Z,326
2023-04-17T06:29:57.000Z,337
2023-04-17T06:31:13.000Z,343
2023-04-17T06:32:29.000Z,343
2023-04-17T06:33:46.000Z,348
2023-04-17T06:35:02.000Z,354
2023-04-17T06:36:18.000Z,360
2023-04-17T06:37:34.000Z,365
2023-04-17T06:38:50.000Z,371
2023-04-17T06:40:07.000Z,376
2023-04-17T06:41:23.000Z,376
2023-04-17T06:42:38.000Z,382
2023-04-17T06:43:54.000Z,388
2023-04-17T06:45:10.000Z,393
2023-04-17T06:46:26.000Z,405
2023-04-17T06:47:43.000Z,410
2023-04-17T06:48:59.000Z,416
2023-04-17T06:50:15.000Z,416
2023-04-17T06:51:31.000Z,416
2023-04-17T06:52:47.000Z,421
2023-04-17T06:54:04.000Z,421
2023-04-17T06:55:20.000Z,421
2023-04-17T06:56:36.000Z,427
2023-04-17T06:57:52.000Z,433
2023-04-17T06:59:07.000Z,433
2023-04-17T07:00:24.000Z,433
2023-04-17T07:01:40.000Z,438
2023-04-17T07:02:56.000Z,438
2023-04-17T07:04:12.000Z,455
2023-04-17T07:05:28.000Z,461
2023-04-17T07:06:45.000Z,472
2023-04-17T07:08:01.000Z,483
2023-04-17T07:09:17.000Z,495
2023-04-17T07:10:33.000Z,528
2023-04-17T07:11:49.000Z,551
2023-04-17T07:13:05.000Z,568
2023-04-17T07:14:22.000Z,585
2023-04-17T07:15:37.000Z,601
2023-04-17T07:16:53.000Z,613
2023-04-17T07:18:09.000Z,624
2023-04-17T07:19:25.000Z,613
2023-04-17T07:20:42.000Z,641
2023-04-17T07:21:58.000Z,663
2023-04-17T07:23:14.000Z,669
2023-04-17T07:24:30.000Z,686
2023-04-17T07:25:46.000Z,691
2023-04-17T07:27:03.000Z,691
2023-04-17T07:28:19.000Z,697
2023-04-17T07:29:35.000Z,697
2023-04-17T07:30:51.000Z,708
2023-04-17T07:32:06.000Z,714
2023-04-17T07:33:23.000Z,714
2023-04-17T07:34:39.000Z,736
2023-04-17T07:35:55.000Z,748
2023-04-17T07:37:11.000Z,753
2023-04-17T07:38:27.000Z,748
2023-04-17T07:39:43.000Z,736
2023-04-17T07:41:00.000Z,770
2023-04-17T07:42:16.000Z,770
2023-04-17T07:43:32.000Z,770
2023-04-17T07:44:48.000Z,793
2023-04-17T07:46:04.000Z,804
2023-04-17T07:47:21.000Z,810
2023-04-17T07:48:36.000Z,810
2023-04-17T07:49:52.000Z,815
2023-04-17T07:51:08.000Z,821
2023-04-17T07:52:24.000Z,821
2023-04-17T07:53:41.000Z,826
2023-04-17T07:54:57.000Z,832
2023-04-17T07:56:13.000Z,838
2023-04-17T07:57:29.000Z,843
2023-04-17T07:58:45.000Z,866
2023-04-17T08:00:02.000Z,883
2023-04-17T08:01:18.000Z,883
2023-04-17T08:02:34.000Z,900
2023-04-17T08:03:50.000Z,855
2023-04-17T08:05:05.000Z,849
2023-04-17T08:06:21.000Z,877
2023-04-17T08:07:38.000Z,883
2023-04-17T08:08:54.000Z,883
2023-04-17T08:10:10.000Z,871
2023-04-17T08:11:26.000Z,815
2023-04-17T08:12:42.000Z,838
2023-04-17T08:13:59.000Z,888
2023-04-17T08:15:15.000Z,911
2023-04-17T08:16:31.000Z,922
2023-04-17T08:17:47.000Z,922
2023-04-17T08:19:03.000Z,928
2023-04-17T08:20:20.000Z,928
2023-04-17T08:21:35.000Z,933
2023-04-17T08:22:51.000Z,933
2023-04-17T08:24:07.000Z,928
2023-04-17T08:25:23.000Z,911
2023-04-17T08:26:39.000Z,916
2023-04-17T08:27:56.000Z,922
2023-04-17T08:29:12.000Z,928
2023-04-17T08:30:28.000Z,950
2023-04-17T08:31:44.000Z,967
2023-04-17T08:33:00.000Z,978
2023-04-17T08:34:17.000Z,978
2023-04-17T08:35:33.000Z,984
2023-04-17T08:36:49.000Z,990
2023-04-17T08:38:04.000Z,1001
2023-04-17T08:39:20.000Z,1029
2023-04-17T08:40:37.000Z,1074
2023-04-17T08:41:53.000Z,1091
2023-04-17T08:43:09.000Z,1091
2023-04-17T08:44:25.000Z,1057
2023-04-17T08:45:41.000Z,1057
2023-04-17T08:46:58.000Z,1057
2023-04-17T08:48:14.000Z,1080
2023-04-17T08:49:30.000Z,1085
2023-04-17T08:50:46.000Z,1080
2023-04-17T08:52:02.000Z,1091
2023-04-17T08:53:18.000Z,1119
2023-04-17T08:54:34.000Z,1136
2023-04-17T08:55:50.000Z,1136
2023-04-17T08:57:06.000Z,1141
2023-04-17T08:58:22.000Z,1130
2023-04-17T08:59:38.000Z,1113
2023-04-17T09:00:55.000Z,1113
2023-04-17T09:02:11.000Z,1091
2023-04-17T09:03:27.000Z,1085
2023-04-17T09:04:43.000Z,1096
2023-04-17T09:05:59.000Z,1102
2023-04-17T09:07:16.000Z,1119
2023-04-17T09:08:32.000Z,1136
2023-04-17T09:09:48.000Z,1198
2023-04-17T09:11:03.000Z,1327
2023-04-17T09:12:19.000Z,1327
2023-04-17T09:13:36.000Z,1175
2023-04-17T09:14:52.000Z,1164
2023-04-17T09:16:08.000Z,1141
2023-04-17T09:17:24.000Z,1170
2023-04-17T09:18:39.000Z,1164
2023-04-17T09:19:55.000Z,1147
2023-04-17T09:21:12.000Z,1102
2023-04-17T09:22:28.000Z,1096
2023-04-17T09:23:44.000Z,1091
2023-04-17T09:25:00.000Z,1080
2023-04-17T09:26:16.000Z,1068
2023-04-17T09:27:33.000Z,1063
2023-04-17T09:28:49.000Z,1057
2023-04-17T09:30:05.000Z,1057
2023-04-17T09:31:21.000Z,1046
2023-04-17T09:32:37.000Z,1035
2023-04-17T09:33:54.000Z,1029
2023-04-17T09:35:09.000Z,1012
2023-04-17T09:36:25.000Z,1006
2023-04-17T09:37:41.000Z,1006
2023-04-17T09:38:57.000Z,1012
2023-04-17T09:40:14.000Z,1006
2023-04-17T09:41:30.000Z,995
2023-04-17T09:42:46.000Z,995
2023-04-17T09:44:02.000Z,973
2023-04-17T09:45:18.000Z,961
2023-04-17T09:46:34.000Z,956
2023-04-17T09:47:51.000Z,950
2023-04-17T09:49:07.000Z,933
2023-04-17T09:50:23.000Z,922
2023-04-17T09:51:38.000Z,905
2023-04-17T09:52:54.000Z,888
2023-04-17T09:54:11.000Z,860
2023-04-17T09:55:27.000Z,838
2023-04-17T09:56:43.000Z,821
2023-04-17T09:57:59.000Z,804
2023-04-17T09:59:15.000Z,793
2023-04-17T10:00:32.000Z,787
2023-04-17T10:01:48.000Z,781
2023-04-17T10:03:04.000Z,804
2023-04-17T10:04:20.000Z,838
2023-04-17T10:05:36.000Z,855
2023-04-17T10:06:53.000Z,877
2023-04-17T10:08:08.000Z,916
2023-04-17T10:09:24.000Z,950
2023-04-17T10:10:40.000Z,995
2023-04-17T10:11:56.000Z,1035
2023-04-17T10:13:12.000Z,1068
2023-04-17T10:14:29.000Z,1293
2023-04-17T10:15:45.000Z,1490
2023-04-17T10:17:01.000Z,1260
2023-04-17T10:18:17.000Z,1237
2023-04-17T10:19:33.000Z,1091
2023-04-17T10:20:50.000Z,916
2023-04-17T10:22:06.000Z,855
2023-04-17T10:23:22.000Z,888
2023-04-17T10:24:37.000Z,1046
2023-04-17T10:25:53.000Z,1096
2023-04-17T10:27:10.000Z,1136
2023-04-17T10:28:26.000Z,1130
2023-04-17T10:29:42.000Z,1462
2023-04-17T10:30:58.000Z,1434
2023-04-17T10:32:14.000Z,1558
2023-04-17T10:33:31.000Z,1395
2023-04-17T10:34:47.000Z,1923
2023-04-17T10:36:03.000Z,2424
2023-04-17T10:37:19.000Z,1845
2023-04-17T10:38:35.000Z,2109
2023-04-17T10:39:51.000Z,1783
2023-04-17T10:41:07.000Z,1766
2023-04-17T10:42:23.000Z,3465
2023-04-17T10:43:39.000Z,2351
2023-04-17T10:44:55.000Z,2683
2023-04-17T10:46:11.000Z,2722
2023-04-17T10:47:28.000Z,1839
2023-04-17T10:48:44.000Z,1659
2023-04-17T10:50:00.000Z,2587
2023-04-17T10:51:16.000Z,3706
2023-04-17T10:52:32.000Z,2345
2023-04-17T10:53:49.000Z,2677
2023-04-17T10:55:05.000Z,3172
2023-04-17T10:56:21.000Z,2041
2023-04-17T10:57:36.000Z,1766
2023-04-17T10:58:52.000Z,1783
2023-04-17T11:00:08.000Z,2368
2023-04-17T11:01:25.000Z,3757
2023-04-17T11:02:41.000Z,3976
2023-04-17T11:03:57.000Z,2446
2023-04-17T11:05:13.000Z,3228
2023-04-17T11:06:29.000Z,4117
2023-04-17T11:07:46.000Z,2283
2023-04-17T11:09:02.000Z,1749
2023-04-17T11:10:18.000Z,1305
2023-04-17T11:11:34.000Z,1665
2023-04-17T11:12:50.000Z,1642
2023-04-17T11:14:06.000Z,1642
2023-04-17T11:15:22.000Z,1614
2023-04-17T11:16:38.000Z,1395
2023-04-17T11:17:54.000Z,1338
2023-04-17T11:19:10.000Z,1310
2023-04-17T11:20:27.000Z,1440
2023-04-17T11:21:43.000Z,1237
2023-04-17T11:22:59.000Z,1231
2023-04-17T11:24:15.000Z,1271
2023-04-17T11:25:31.000Z,1288
2023-04-17T11:26:47.000Z,1237
2023-04-17T11:28:04.000Z,1226
2023-04-17T11:29:20.000Z,1237
2023-04-17T11:30:35.000Z,1209
2023-04-17T11:31:51.000Z,1203
2023-04-17T11:33:07.000Z,1198
2023-04-17T11:34:24.000Z,1153
2023-04-17T11:35:40.000Z,1141
2023-04-17T11:36:56.000Z,1147
2023-04-17T11:38:12.000Z,1164
2023-04-17T11:39:28.000Z,1141
2023-04-17T11:40:45.000Z,1164
2023-04-17T11:42:01.000Z,1147
2023-04-17T11:43:17.000Z,1153
2023-04-17T11:44:33.000Z,1164
2023-04-17T11:45:49.000Z,1164
2023-04-17T11:47:05.000Z,1147
2023-04-17T11:48:21.000Z,1153
2023-04-17T11:49:37.000Z,1147
2023-04-17T11:50:53.000Z,1158
2023-04-17T11:52:09.000Z,1130
2023-04-17T11:53:25.000Z,1147
2023-04-17T11:54:42.000Z,1237
2023-04-17T11:55:58.000Z,1226
2023-04-17T11:57:14.000Z,1231
2023-04-17T11:58:30.000Z,1282
2023-04-17T11:59:46.000Z,1569
2023-04-17T12:01:03.000Z,1597
2023-04-17T12:02:19.000Z,1923
2023-04-17T12:03:34.000Z,2424
2023-04-17T12:04:50.000Z,2480
2023-04-17T12:06:06.000Z,2818
2023-04-17T12:07:23.000Z,2570
2023-04-17T12:08:39.000Z,2058
2023-04-17T12:09:55.000Z,2880
2023-04-17T12:11:11.000Z,2615
2023-04-17T12:12:27.000Z,2908
2023-04-17T12:13:44.000Z,3268
2023-04-17T12:15:00.000Z,3538
2023-04-17T12:16:16.000Z,3453
2023-04-17T12:17:32.000Z,2351
2023-04-17T12:18:48.000Z,2722
2023-04-17T12:20:03.000Z,2992
2023-04-17T12:21:20.000Z,2446
2023-04-17T12:22:36.000Z,3886
2023-04-17T12:23:52.000Z,2902
2023-04-17T12:25:08.000Z,1833
2023-04-17T12:26:24.000Z,1890
2023-04-17T12:27:41.000Z,3037
2023-04-17T12:28:57.000Z,2581
2023-04-17T12:30:13.000Z,2958
2023-04-17T12:31:29.000Z,2480
2023-04-17T12:32:45.000Z,2176
2023-04-17T12:34:02.000Z,3341
2023-04-17T12:35:18.000Z,2233
2023-04-17T12:36:33.000Z,2835
2023-04-17T12:37:49.000Z,2806
2023-04-17T12:39:05.000Z,2998
2023-04-17T12:40:22.000Z,2413
2023-04-17T12:41:38.000Z,3071
2023-04-17T12:42:54.000Z,2683
2023-04-17T12:44:10.000Z,2396
2023-04-17T12:45:26.000Z,2103
2023-04-17T12:46:42.000Z,1681
2023-04-17T12:47:59.000Z,2086
2023-04-17T12:49:15.000Z,2176
2023-04-17T12:50:31.000Z,1935
2023-04-17T12:51:47.000Z,2531
2023-04-17T12:53:02.000Z,2655
2023-04-17T12:54:19.000Z,2778
2023-04-17T12:55:35.000Z,2885
2023-04-17T12:56:51.000Z,2272
2023-04-17T12:58:07.000Z,2092
2023-04-17T12:59:23.000Z,1681
2023-04-17T13:00:40.000Z,1800
2023-04-17T13:01:56.000Z,1861
2023-04-17T13:03:12.000Z,2221
2023-04-17T13:04:28.000Z,2643
2023-04-17T13:05:44.000Z,2581
2023-04-17T13:07:00.000Z,2694
2023-04-17T13:08:17.000Z,3223
2023-04-17T13:09:32.000Z,3363
2023-04-17T13:10:48.000Z,2126
2023-04-17T13:12:04.000Z,2531
2023-04-17T13:13:20.000Z,2182
2023-04-17T13:14:37.000Z,3521
2023-04-17T13:15:53.000Z,3470
2023-04-17T13:17:09.000Z,3583
2023-04-17T13:18:25.000Z,967
2023-04-17T13:19:41.000Z,3324
2023-04-17T13:20:58.000Z,1946
2023-04-17T13:22:14.000Z,3566
2023-04-17T13:23:30.000Z,3465
2023-04-17T13:24:46.000Z,1535
2023-04-17T13:26:01.000Z,855
2023-04-17T13:27:18.000Z,714
2023-04-17T13:28:34.000Z,601
2023-04-17T13:29:50.000Z,601
2023-04-17T13:31:06.000Z,663
2023-04-17T13:32:22.000Z,703
2023-04-17T13:33:38.000Z,838
2023-04-17T13:34:54.000Z,3504
2023-04-17T13:36:10.000Z,3498
2023-04-17T13:37:26.000Z,3549
2023-04-17T13:38:42.000Z,3510
2023-04-17T13:39:58.000Z,3459
2023-04-17T13:41:15.000Z,956
2023-04-17T13:42:31.000Z,978
2023-04-17T13:43:47.000Z,1260
2023-04-17T13:45:03.000Z,2925
2023-04-17T13:46:19.000Z,658
2023-04-17T13:47:36.000Z,540
2023-04-17T13:48:52.000Z,511
2023-04-17T13:50:07.000Z,523
2023-04-17T13:51:23.000Z,545
2023-04-17T13:52:39.000Z,607
2023-04-17T13:53:56.000Z,686
2023-04-17T13:55:12.000Z,2047
2023-04-17T13:56:28.000Z,2452
2023-04-17T13:57:44.000Z,2109
2023-04-17T13:59:00.000Z,1586
2023-04-17T14:00:17.000Z,1608
2023-04-17T14:01:33.000Z,1957
2023-04-17T14:02:49.000Z,1130
2023-04-17T14:04:05.000Z,2818
2023-04-17T14:05:21.000Z,2891
2023-04-17T14:06:36.000Z,933
2023-04-17T14:07:53.000Z,1496
2023-04-17T14:09:09.000Z,2115
2023-04-17T14:10:25.000Z,590
2023-04-17T14:11:41.000Z,573
2023-04-17T14:12:57.000Z,511
2023-04-17T14:14:14.000Z,523
2023-04-17T14:15:30.000Z,551
2023-04-17T14:16:46.000Z,562
2023-04-17T14:18:02.000Z,624
2023-04-17T14:19:18.000Z,990
2023-04-17T14:20:35.000Z,911
2023-04-17T14:21:51.000Z,2565
2023-04-17T14:23:06.000Z,2593
2023-04-17T14:24:22.000Z,2593
2023-04-17T14:25:38.000Z,2666
2023-04-17T14:26:55.000Z,2486
2023-04-17T14:28:11.000Z,2553
2023-04-17T14:29:27.000Z,2520
2023-04-17T14:30:43.000Z,2536
2023-04-17T14:31:59.000Z,2430
2023-04-17T14:33:15.000Z,2407
2023-04-17T14:34:32.000Z,2396
2023-04-17T14:35:48.000Z,2351
2023-04-17T14:37:04.000Z,1991
2023-04-17T14:38:20.000Z,1231
2023-04-17T14:39:35.000Z,1597
2023-04-17T14:40:52.000Z,2278
2023-04-17T14:42:08.000Z,2306
2023-04-17T14:43:24.000Z,2221
2023-04-17T14:44:40.000Z,2160
2023-04-17T14:45:56.000Z,2188
2023-04-17T14:47:13.000Z,2238
2023-04-17T14:48:29.000Z,2171
2023-04-17T14:49:45.000Z,2115
2023-04-17T14:51:01.000Z,2165
2023-04-17T14:52:17.000Z,2120
2023-04-17T14:53:34.000Z,2188
2023-04-17T14:54:50.000Z,2216
2023-04-17T14:56:05.000Z,2182
2023-04-17T14:57:21.000Z,2092
2023-04-17T14:58:37.000Z,1423
2023-04-17T14:59:54.000Z,1051
2023-04-17T15:01:10.000Z,855
2023-04-17T15:02:26.000Z,731
2023-04-17T15:03:42.000Z,652
2023-04-17T15:04:58.000Z,568
2023-04-17T15:06:14.000Z,540
2023-04-17T15:07:31.000Z,506
2023-04-17T15:08:47.000Z,450
2023-04-17T15:10:03.000Z,388
2023-04-17T15:11:19.000Z,320
2023-04-17T15:12:34.000Z,264
2023-04-17T15:13:51.000Z,247
2023-04-17T15:15:07.000Z,236
2023-04-17T15:16:23.000Z,253
2023-04-17T15:17:39.000Z,275
2023-04-17T15:18:55.000Z,292
2023-04-17T15:20:12.000Z,303
2023-04-17T15:21:28.000Z,309
2023-04-17T15:22:44.000Z,309
2023-04-17T15:24:00.000Z,331
2023-04-17T15:25:16.000Z,354
2023-04-17T15:26:33.000Z,416
2023-04-17T15:27:49.000Z,1361
2023-04-17T15:29:05.000Z,1423
2023-04-17T15:30:20.000Z,573
2023-04-17T15:31:36.000Z,1271
2023-04-17T15:32:52.000Z,1350
2023-04-17T15:34:09.000Z,1333
2023-04-17T15:35:25.000Z,1310
2023-04-17T15:36:41.000Z,1265
2023-04-17T15:37:57.000Z,1260
2023-04-17T15:39:13.000Z,1141
2023-04-17T15:40:30.000Z,1068
2023-04-17T15:41:46.000Z,933
2023-04-17T15:43:02.000Z,770
2023-04-17T15:44:18.000Z,652
2023-04-17T15:45:34.000Z,703
2023-04-17T15:46:50.000Z,843
2023-04-17T15:48:06.000Z,916
2023-04-17T15:49:22.000Z,990
2023-04-17T15:50:38.000Z,1051
2023-04-17T15:51:54.000Z,1057
2023-04-17T15:53:11.000Z,1046
2023-04-17T15:54:27.000Z,1006
2023-04-17T15:55:43.000Z,1012
2023-04-17T15:56:59.000Z,984
2023-04-17T15:58:15.000Z,945
2023-04-17T15:59:32.000Z,888
2023-04-17T16:00:48.000Z,804
2023-04-17T16:02:04.000Z,720
2023-04-17T16:03:19.000Z,652
2023-04-17T16:04:35.000Z,618
2023-04-17T16:05:51.000Z,601
2023-04-17T16:07:08.000Z,607
2023-04-17T16:08:24.000Z,613
2023-04-17T16:09:40.000Z,624
2023-04-17T16:10:56.000Z,641
2023-04-17T16:12:12.000Z,675
2023-04-17T16:13:29.000Z,393
2023-04-17T16:14:45.000Z,326
2023-04-17T16:16:01.000Z,703
2023-04-17T16:17:17.000Z,945
2023-04-17T16:18:33.000Z,871
2023-04-17T16:19:49.000Z,933
2023-04-17T16:21:05.000Z,832
2023-04-17T16:22:21.000Z,725
2023-04-17T16:23:37.000Z,556
2023-04-17T16:24:53.000Z,450
2023-04-17T16:26:10.000Z,517
2023-04-17T16:27:26.000Z,624
2023-04-17T16:28:42.000Z,607
2023-04-17T16:29:58.000Z,523
2023-04-17T16:31:14.000Z,523
2023-04-17T16:32:30.000Z,511
2023-04-17T16:33:47.000Z,472
2023-04-17T16:35:03.000Z,466
2023-04-17T16:36:19.000Z,461
2023-04-17T16:37:34.000Z,416
2023-04-17T16:38:50.000Z,348
2023-04-17T16:40:07.000Z,303
2023-04-17T16:41:23.000Z,281
2023-04-17T16:42:39.000Z,298
2023-04-17T16:43:55.000Z,309
2023-04-17T16:45:11.000Z,309
2023-04-17T16:46:28.000Z,309
2023-04-17T16:47:44.000Z,281
2023-04-17T16:49:00.000Z,247
2023-04-17T16:50:16.000Z,247
2023-04-17T16:51:32.000Z,253
2023-04-17T16:52:49.000Z,241
2023-04-17T16:54:04.000Z,230
2023-04-17T16:55:20.000Z,225
2023-04-17T16:56:36.000Z,225
2023-04-17T16:57:52.000Z,225
2023-04-17T16:59:09.000Z,219
2023-04-17T17:00:25.000Z,208
2023-04-17T17:01:41.000Z,202
2023-04-17T17:02:57.000Z,202
2023-04-17T17:04:13.000Z,202
2023-04-17T17:05:29.000Z,202
2023-04-17T17:06:46.000Z,202
2023-04-17T17:08:02.000Z,208
2023-04-17T17:09:18.000Z,219
2023-04-17T17:10:33.000Z,213
2023-04-17T17:11:49.000Z,213
2023-04-17T17:13:06.000Z,230
2023-04-17T17:14:22.000Z,230
2023-04-17T17:15:38.000Z,219
2023-04-17T17:16:54.000Z,208
2023-04-17T17:18:10.000Z,202
2023-04-17T17:19:27.000Z,191
2023-04-17T17:20:43.000Z,174
2023-04-17T17:21:59.000Z,157
2023-04-17T17:23:15.000Z,151
2023-04-17T17:24:31.000Z,146
2023-04-17T17:25:48.000Z,140
2023-04-17T17:27:03.000Z,129
2023-04-17T17:28:19.000Z,123
2023-04-17T17:29:35.000Z,123
2023-04-17T17:30:51.000Z,118
2023-04-17T17:32:07.000Z,123
2023-04-17T17:33:24.000Z,118
2023-04-17T17:34:40.000Z,112
2023-04-17T17:35:56.000Z,106
2023-04-17T17:37:12.000Z,106